Time;durP1;ratioP1;P1;durP2;ratioP2;P2;SDS_P1;SDS_P2;PMS_P1;PMS_P2;Temp;Humidity;BMP_temperature;BMP_pressure;BME280_temperature;BME280_humidity;BME280_pressure;Samples;Min_cycle;Max_cycle;Signal;HPM_P1;HPM_P2
2023/05/22 00:01:31;;;;;;;11.25;9.32;;;;;;;;;;5060556;28;20197;-84
2023/05/22 00:03:58;;;;;;;11.80;9.75;;;;;;;;;;5045848;28;20690;-84
2023/05/22 00:06:26;;;;;;;9.75;8.85;;;;;;;;;;5053461;28;20749;-83
2023/05/22 00:08:53;;;;;;;10.73;9.05;;;;;;;;;;5078839;28;20204;-84
2023/05/22 00:11:21;;;;;;;9.70;8.75;;;;;;;;;;5073079;28;20205;-85
2023/05/22 00:13:49;;;;;;;10.52;9.48;;;;;;;;;;5076171;28;20497;-84
2023/05/22 00:16:16;;;;;;;10.68;9.55;;;;;;;;;;5041105;28;20293;-84
2023/05/22 00:18:43;;;;;;;10.70;9.45;;;;;;;;;;5067230;28;20262;-82
2023/05/22 00:21:11;;;;;;;10.32;9.20;;;;;;;;;;5076486;28;20797;-83
2023/05/22 00:23:38;;;;;;;11.25;9.98;;;;;;;;;;5045839;28;20709;-81
2023/05/22 00:26:05;;;;;;;10.63;9.30;;;;;;;;;;5056654;28;20298;-83
2023/05/22 00:28:32;;;;;;;11.20;9.07;;;;;;;;;;5054581;28;21684;-82
2023/05/22 00:31:00;;;;;;;13.30;9.73;;;;;;;;;;5078347;28;20205;-83
2023/05/22 00:33:27;;;;;;;10.65;9.63;;;;;;;;;;5074818;28;20255;-84
2023/05/22 00:35:54;;;;;;;10.82;9.75;;;;;;;;;;5069970;28;20572;-82
2023/05/22 00:38:31;;;;;;;10.93;9.82;;;;;;;;;;5065095;28;20555;-81
2023/05/22 00:41:02;;;;;;;10.65;9.55;;;;;;;;;;5065144;28;20220;-82
2023/05/22 00:43:30;;;;;;;11.88;9.70;;;;;;;;;;5075992;28;20233;-84
2023/05/22 00:45:57;;;;;;;10.60;9.57;;;;;;;;;;5070293;28;20209;-85
2023/05/22 00:48:25;;;;;;;11.05;9.82;;;;;;;;;;5052868;28;20218;-79
2023/05/22 00:50:54;;;;;;;12.52;9.77;;;;;;;;;;5066045;28;20312;-82
2023/05/22 00:53:21;;;;;;;11.48;10.27;;;;;;;;;;5070295;28;20688;-84
2023/05/22 00:55:49;;;;;;;10.82;9.57;;;;;;;;;;5050481;28;20223;-82
2023/05/22 00:58:17;;;;;;;11.25;10.15;;;;;;;;;;5076249;28;20197;-82
2023/05/22 01:00:48;;;;;;;11.85;9.63;;;;;;;;;;5060524;28;20234;-81
2023/05/22 01:03:15;;;;;;;10.63;9.63;;;;;;;;;;5077303;28;20228;-82
2023/05/22 01:05:44;;;;;;;11.57;10.23;;;;;;;;;;5078799;28;20212;-80
2023/05/22 01:08:11;;;;;;;11.43;10.00;;;;;;;;;;5064426;28;21483;-81
2023/05/22 01:10:38;;;;;;;10.85;9.20;;;;;;;;;;5078836;28;20193;-82
2023/05/22 01:13:23;;;;;;;12.23;10.68;;;;;;;;;;5063974;28;23382;-82
2023/05/22 01:15:59;;;;;;;13.23;10.90;;;;;;;;;;5060669;28;20487;-84
2023/05/22 01:18:28;;;;;;;11.17;10.07;;;;;;;;;;5049631;28;20206;-82
2023/05/22 01:21:21;;;;;;;11.80;10.70;;;;;;;;;;5061610;28;20208;-81
2023/05/22 01:23:58;;;;;;;13.02;10.85;;;;;;;;;;5054894;28;20233;-83
2023/05/22 01:26:31;;;;;;;11.70;10.50;;;;;;;;;;5071187;28;20246;-83
2023/05/22 01:29:04;;;;;;;11.52;10.35;;;;;;;;;;5070680;28;20205;-82
2023/05/22 01:31:32;;;;;;;11.30;10.15;;;;;;;;;;5057059;28;20254;-82
2023/05/22 01:34:02;;;;;;;11.17;10.07;;;;;;;;;;5037043;28;20612;-84
2023/05/22 01:36:31;;;;;;;11.73;9.43;;;;;;;;;;5039050;28;20209;-83
2023/05/22 01:39:00;;;;;;;11.20;10.10;;;;;;;;;;5042616;28;20216;-82
2023/05/22 01:41:28;;;;;;;10.80;9.70;;;;;;;;;;5059263;28;20216;-83
2023/05/22 01:43:56;;;;;;;11.93;10.80;;;;;;;;;;5071453;28;20316;-84
2023/05/22 01:46:27;;;;;;;11.97;10.20;;;;;;;;;;5061126;28;20310;-82
2023/05/22 01:48:55;;;;;;;11.23;10.00;;;;;;;;;;5058863;28;20201;-82
2023/05/22 01:51:27;;;;;;;11.80;9.93;;;;;;;;;;5060191;28;20652;-82
2023/05/22 01:54:04;;;;;;;11.40;9.83;;;;;;;;;;5063001;28;20247;-85
2023/05/22 01:56:44;;;;;;;11.53;10.43;;;;;;;;;;5063136;28;20216;-82
2023/05/22 01:59:18;;;;;;;12.27;10.57;;;;;;;;;;5070513;28;20255;-83
2023/05/22 02:01:47;;;;;;;12.52;10.55;;;;;;;;;;5065228;28;20793;-83
2023/05/22 02:04:15;;;;;;;11.33;10.23;;;;;;;;;;5065529;28;20919;-82
2023/05/22 02:06:44;;;;;;;11.70;10.50;;;;;;;;;;5078798;28;20350;-82
2023/05/22 02:09:12;;;;;;;13.63;11.60;;;;;;;;;;5066264;28;20213;-82
2023/05/22 02:11:39;;;;;;;12.13;10.93;;;;;;;;;;5044731;28;20228;-82
2023/05/22 02:14:08;;;;;;;12.50;11.20;;;;;;;;;;5062721;28;20225;-81
2023/05/22 02:16:36;;;;;;;12.80;11.48;;;;;;;;;;5061860;28;20660;-81
2023/05/22 02:19:07;;;;;;;12.68;11.40;;;;;;;;;;5076994;28;20226;-80
2023/05/22 02:21:35;;;;;;;12.68;11.38;;;;;;;;;;5056180;28;20233;-80
2023/05/22 02:24:02;;;;;;;12.27;10.90;;;;;;;;;;5068003;28;20722;-84
2023/05/22 02:26:29;;;;;;;12.02;10.93;;;;;;;;;;5058123;28;20201;-83
2023/05/22 02:28:56;;;;;;;11.95;10.75;;;;;;;;;;5064773;28;20327;-83
2023/05/22 02:31:24;;;;;;;13.07;10.43;;;;;;;;;;5074797;28;20699;-82
2023/05/22 02:33:51;;;;;;;12.20;10.95;;;;;;;;;;5042923;28;20221;-78
2023/05/22 02:36:18;;;;;;;14.13;10.98;;;;;;;;;;5073587;28;20220;-82
2023/05/22 02:38:46;;;;;;;11.82;10.48;;;;;;;;;;5077672;28;20200;-80
2023/05/22 02:41:13;;;;;;;11.25;10.05;;;;;;;;;;5076065;28;20793;-82
2023/05/22 02:43:40;;;;;;;12.50;9.97;;;;;;;;;;5079515;28;20656;-84
2023/05/22 02:46:07;;;;;;;11.57;10.37;;;;;;;;;;5059154;28;20250;-82
2023/05/22 02:48:35;;;;;;;13.50;10.73;;;;;;;;;;5049029;28;20289;-81
2023/05/22 02:51:02;;;;;;;12.07;10.88;;;;;;;;;;5063297;28;20233;-82
2023/05/22 02:53:29;;;;;;;13.10;11.20;;;;;;;;;;5045347;28;20217;-84
2023/05/22 02:55:57;;;;;;;15.32;11.50;;;;;;;;;;5064300;28;20732;-82
2023/05/22 02:58:25;;;;;;;12.35;11.15;;;;;;;;;;5064620;28;20488;-82
2023/05/22 03:00:52;;;;;;;12.30;11.10;;;;;;;;;;5067917;28;20257;-83
2023/05/22 03:03:19;;;;;;;13.52;12.15;;;;;;;;;;5048935;28;20236;-81
2023/05/22 03:05:48;;;;;;;12.63;11.35;;;;;;;;;;5055059;28;20197;-83
2023/05/22 03:08:16;;;;;;;11.88;10.68;;;;;;;;;;5057482;28;20243;-83
2023/05/22 03:10:44;;;;;;;13.73;11.38;;;;;;;;;;5051570;28;20205;-81
2023/05/22 03:13:11;;;;;;;12.77;11.23;;;;;;;;;;5063700;28;20173;-84
2023/05/22 03:15:38;;;;;;;12.90;11.10;;;;;;;;;;5081608;28;20263;-82
2023/05/22 03:18:06;;;;;;;12.20;11.00;;;;;;;;;;5076390;28;20187;-85
2023/05/22 03:20:33;;;;;;;12.45;11.35;;;;;;;;;;5077542;28;20239;-82
2023/05/22 03:23:00;;;;;;;11.93;10.70;;;;;;;;;;5054049;28;20313;-81
2023/05/22 03:25:27;;;;;;;11.85;10.70;;;;;;;;;;5062905;28;20292;-83
2023/05/22 03:27:55;;;;;;;12.32;11.10;;;;;;;;;;5064862;28;20417;-83
2023/05/22 03:30:22;;;;;;;13.75;12.45;;;;;;;;;;5069639;28;20223;-82
2023/05/22 03:32:51;;;;;;;15.60;13.90;;;;;;;;;;5075938;28;20278;-83
2023/05/22 03:35:19;;;;;;;17.90;13.93;;;;;;;;;;5066467;28;20933;-83
2023/05/22 03:37:46;;;;;;;17.20;15.13;;;;;;;;;;5054476;28;20209;-82
2023/05/22 03:40:14;;;;;;;14.43;13.02;;;;;;;;;;5058564;28;20631;-81
2023/05/22 03:42:41;;;;;;;16.27;14.57;;;;;;;;;;5059595;28;20376;-82
2023/05/22 03:45:09;;;;;;;15.27;13.68;;;;;;;;;;5065117;28;20297;-84
2023/05/22 03:47:36;;;;;;;16.00;14.20;;;;;;;;;;5059634;28;20231;-83
2023/05/22 03:50:03;;;;;;;14.70;13.20;;;;;;;;;;5054030;28;20681;-84
2023/05/22 03:52:30;;;;;;;13.52;12.13;;;;;;;;;;5049243;28;20225;-80
2023/05/22 03:54:58;;;;;;;11.50;10.38;;;;;;;;;;5057590;28;20520;-81
2023/05/22 03:57:25;;;;;;;11.20;10.10;;;;;;;;;;5058641;28;20578;-82
2023/05/22 03:59:52;;;;;;;11.68;10.55;;;;;;;;;;5055963;28;20529;-79
2023/05/22 04:02:20;;;;;;;11.73;10.43;;;;;;;;;;5066596;28;20236;-83
2023/05/22 04:04:47;;;;;;;11.35;10.20;;;;;;;;;;5052820;28;20209;-82
2023/05/22 04:07:17;;;;;;;11.98;10.77;;;;;;;;;;5056711;28;20238;-81
2023/05/22 04:09:44;;;;;;;13.73;12.32;;;;;;;;;;5064401;28;20194;-80
2023/05/22 04:12:11;;;;;;;14.18;12.73;;;;;;;;;;5050131;28;20206;-84
2023/05/22 04:14:39;;;;;;;12.23;10.98;;;;;;;;;;5054921;28;20220;-79
2023/05/22 04:17:06;;;;;;;13.05;11.73;;;;;;;;;;5075398;28;20620;-81
2023/05/22 04:19:33;;;;;;;14.30;12.50;;;;;;;;;;5065374;28;20201;-81
2023/05/22 04:22:01;;;;;;;14.18;12.70;;;;;;;;;;5071690;28;20225;-81
2023/05/22 04:24:28;;;;;;;15.00;12.93;;;;;;;;;;5055542;28;20370;-82
2023/05/22 04:26:58;;;;;;;14.20;12.80;;;;;;;;;;5046153;28;20212;-79
2023/05/22 04:29:27;;;;;;;13.88;12.18;;;;;;;;;;5064003;28;20185;-76
2023/05/22 04:31:54;;;;;;;15.75;12.43;;;;;;;;;;5063682;28;20209;-77
2023/05/22 04:34:23;;;;;;;15.20;12.57;;;;;;;;;;5061340;28;20220;-78
2023/05/22 04:36:51;;;;;;;15.40;12.15;;;;;;;;;;5082901;28;20831;-81
2023/05/22 04:39:18;;;;;;;15.00;12.80;;;;;;;;;;5074742;28;20212;-78
2023/05/22 04:41:45;;;;;;;19.50;14.88;;;;;;;;;;5080441;28;20225;-80
2023/05/22 04:44:13;;;;;;;16.13;12.57;;;;;;;;;;5063561;28;20750;-81
2023/05/22 04:46:42;;;;;;;15.52;10.23;;;;;;;;;;5064507;28;20201;-82
2023/05/22 04:49:10;;;;;;;15.35;10.43;;;;;;;;;;5053349;28;20201;-84
2023/05/22 04:51:37;;;;;;;19.13;11.00;;;;;;;;;;5046202;28;20258;-79
2023/05/22 04:54:04;;;;;;;15.02;10.30;;;;;;;;;;5064366;28;20220;-80
2023/05/22 04:56:31;;;;;;;15.93;10.55;;;;;;;;;;5060571;28;20205;-80
2023/05/22 04:59:04;;;;;;;16.90;11.00;;;;;;;;;;5073094;28;20209;-78
2023/05/22 05:01:31;;;;;;;10.90;9.73;;;;;;;;;;5073747;28;20582;-79
2023/05/22 05:03:59;;;;;;;16.08;10.30;;;;;;;;;;5080132;28;20232;-82
2023/05/22 05:06:27;;;;;;;13.20;10.20;;;;;;;;;;5066604;28;20695;-78
2023/05/22 05:08:54;;;;;;;10.63;9.63;;;;;;;;;;5064684;28;21550;-79
2023/05/22 05:11:21;;;;;;;11.10;9.98;;;;;;;;;;5076366;28;20209;-79
2023/05/22 05:13:49;;;;;;;12.30;11.00;;;;;;;;;;5062067;28;20251;-78
2023/05/22 05:16:16;;;;;;;12.60;11.30;;;;;;;;;;5047043;28;20731;-78
2023/05/22 05:18:43;;;;;;;11.95;10.57;;;;;;;;;;5066344;28;20292;-80
2023/05/22 05:21:10;;;;;;;16.00;13.90;;;;;;;;;;5064437;28;20794;-79
2023/05/22 05:23:38;;;;;;;16.17;14.27;;;;;;;;;;5066558;28;20229;-79
2023/05/22 05:26:06;;;;;;;15.38;13.90;;;;;;;;;;5050087;28;20200;-78
2023/05/22 05:28:33;;;;;;;17.85;13.43;;;;;;;;;;5066523;28;20459;-81
2023/05/22 05:31:01;;;;;;;19.05;13.90;;;;;;;;;;5069727;28;20213;-82
2023/05/22 05:33:28;;;;;;;15.45;13.50;;;;;;;;;;5067219;28;20217;-81
2023/05/22 05:35:56;;;;;;;18.92;12.75;;;;;;;;;;5061789;28;20278;-77
2023/05/22 05:38:23;;;;;;;16.10;12.63;;;;;;;;;;5065507;28;20204;-79
2023/05/22 05:40:50;;;;;;;13.35;11.98;;;;;;;;;;5056075;28;20254;-79
2023/05/22 05:43:19;;;;;;;13.77;12.05;;;;;;;;;;5074023;28;20236;-79
2023/05/22 05:45:46;;;;;;;12.20;10.98;;;;;;;;;;5066133;28;20197;-81
2023/05/22 05:48:13;;;;;;;10.90;9.77;;;;;;;;;;5043945;28;20295;-84
2023/05/22 05:50:40;;;;;;;10.40;9.35;;;;;;;;;;5069462;28;20215;-82
2023/05/22 05:53:08;;;;;;;15.48;9.60;;;;;;;;;;5069705;28;20228;-80
2023/05/22 05:55:35;;;;;;;11.15;10.15;;;;;;;;;;5050089;28;20224;-80
2023/05/22 05:58:02;;;;;;;10.85;9.40;;;;;;;;;;5069001;28;20274;-79
2023/05/22 06:00:30;;;;;;;12.10;10.70;;;;;;;;;;5065357;28;20213;-80
2023/05/22 06:02:58;;;;;;;10.93;9.93;;;;;;;;;;5084523;28;20229;-80
2023/05/22 06:05:28;;;;;;;11.95;9.80;;;;;;;;;;5066030;28;20644;-79
2023/05/22 06:07:58;;;;;;;10.82;9.73;;;;;;;;;;5075173;28;20196;-84
2023/05/22 06:10:25;;;;;;;10.85;9.85;;;;;;;;;;5073805;28;20208;-82
2023/05/22 06:12:53;;;;;;;12.85;10.23;;;;;;;;;;5059101;28;20223;-83
2023/05/22 06:15:20;;;;;;;14.57;10.38;;;;;;;;;;5081151;28;20732;-80
2023/05/22 06:17:48;;;;;;;12.35;9.77;;;;;;;;;;5070607;28;20201;-82
2023/05/22 06:20:15;;;;;;;12.05;10.23;;;;;;;;;;5069369;28;20736;-81
2023/05/22 06:22:42;;;;;;;10.30;9.30;;;;;;;;;;5065394;28;20643;-78
2023/05/22 06:25:10;;;;;;;10.23;9.15;;;;;;;;;;5070103;28;20233;-85
2023/05/22 06:27:37;;;;;;;12.57;9.73;;;;;;;;;;5047151;28;20293;-87
2023/05/22 06:30:05;;;;;;;13.38;12.07;;;;;;;;;;5051286;28;20205;-82
2023/05/22 06:32:33;;;;;;;9.43;8.52;;;;;;;;;;5066490;28;20225;-80
2023/05/22 06:35:00;;;;;;;11.45;9.35;;;;;;;;;;5081613;28;20202;-81
2023/05/22 06:37:30;;;;;;;10.50;9.60;;;;;;;;;;5080593;28;20221;-86
2023/05/22 06:39:57;;;;;;;9.43;8.60;;;;;;;;;;5081429;28;20531;-79
2023/05/22 06:42:24;;;;;;;10.55;9.48;;;;;;;;;;5084849;28;20233;-81
2023/05/22 06:44:51;;;;;;;10.77;9.70;;;;;;;;;;5068016;28;20225;-81
2023/05/22 06:47:19;;;;;;;10.50;9.50;;;;;;;;;;5059544;28;20235;-80
2023/05/22 06:49:55;;;;;;;10.95;9.75;;;;;;;;;;5064044;28;20213;-86
2023/05/22 06:52:23;;;;;;;11.88;10.68;;;;;;;;;;5062875;28;20858;-83
2023/05/22 06:54:51;;;;;;;11.60;9.82;;;;;;;;;;5047774;28;21104;-79
2023/05/22 06:57:27;;;;;;;10.60;9.60;;;;;;;;;;5075520;28;20679;-85
2023/05/22 06:59:54;;;;;;;10.55;9.55;;;;;;;;;;5073361;28;20286;-86
2023/05/22 07:02:22;;;;;;;13.43;10.32;;;;;;;;;;5062956;28;20228;-82
2023/05/22 07:04:51;;;;;;;11.43;10.32;;;;;;;;;;5066934;28;20209;-81
2023/05/22 07:07:18;;;;;;;12.52;10.95;;;;;;;;;;5063002;28;20632;-83
2023/05/22 07:09:46;;;;;;;10.90;9.75;;;;;;;;;;5050348;28;20201;-80
2023/05/22 07:12:13;;;;;;;11.85;10.60;;;;;;;;;;5066792;28;20201;-81
2023/05/22 07:14:41;;;;;;;11.52;10.35;;;;;;;;;;5072128;28;20284;-82
2023/05/22 07:17:08;;;;;;;10.10;9.10;;;;;;;;;;5061012;28;20209;-82
2023/05/22 07:19:35;;;;;;;11.13;9.65;;;;;;;;;;5066130;28;20241;-86
2023/05/22 07:22:03;;;;;;;9.95;8.98;;;;;;;;;;5065703;28;20627;-86
2023/05/22 07:24:30;;;;;;;9.93;9.02;;;;;;;;;;5063055;28;20290;-82
2023/05/22 07:26:58;;;;;;;11.68;10.10;;;;;;;;;;5064504;28;20698;-80
2023/05/22 07:29:25;;;;;;;10.55;9.45;;;;;;;;;;5064834;28;20667;-81
2023/05/22 07:31:52;;;;;;;10.85;9.85;;;;;;;;;;5068241;28;20196;-81
2023/05/22 07:34:19;;;;;;;12.57;10.93;;;;;;;;;;5064232;28;20466;-80
2023/05/22 07:36:47;;;;;;;12.13;10.50;;;;;;;;;;5067142;28;20258;-84
2023/05/22 07:39:15;;;;;;;11.05;9.90;;;;;;;;;;5066099;28;20205;-79
2023/05/22 07:41:48;;;;;;;11.93;10.68;;;;;;;;;;5064916;28;20212;-77
2023/05/22 07:44:16;;;;;;;11.48;10.38;;;;;;;;;;5071754;28;20240;-80
2023/05/22 07:46:43;;;;;;;12.10;10.95;;;;;;;;;;5054894;28;20220;-81
2023/05/22 07:49:11;;;;;;;12.30;10.43;;;;;;;;;;5064369;28;20205;-77
2023/05/22 07:51:39;;;;;;;13.55;10.07;;;;;;;;;;5046670;28;20197;-81
2023/05/22 07:54:07;;;;;;;11.80;10.70;;;;;;;;;;5065372;28;20309;-77
2023/05/22 07:56:38;;;;;;;12.15;10.07;;;;;;;;;;5043418;28;20209;-81
2023/05/22 07:59:06;;;;;;;11.25;10.10;;;;;;;;;;5064529;28;20332;-84
2023/05/22 08:01:33;;;;;;;10.50;9.43;;;;;;;;;;5066868;28;20663;-84
2023/05/22 08:04:00;;;;;;;11.75;10.65;;;;;;;;;;5069575;28;20322;-82
2023/05/22 08:06:28;;;;;;;12.27;10.30;;;;;;;;;;5062936;28;20204;-84
2023/05/22 08:08:56;;;;;;;11.82;10.32;;;;;;;;;;5066242;28;20644;-83
2023/05/22 08:11:25;;;;;;;10.93;9.90;;;;;;;;;;5043420;28;20204;-81
2023/05/22 08:13:52;;;;;;;10.45;9.35;;;;;;;;;;5047966;28;20285;-82
2023/05/22 08:16:19;;;;;;;10.63;9.52;;;;;;;;;;5066784;28;20205;-79
2023/05/22 08:18:47;;;;;;;10.32;9.32;;;;;;;;;;5062436;28;20990;-85
2023/05/22 08:21:14;;;;;;;10.23;9.20;;;;;;;;;;5067796;28;20776;-82
2023/05/22 08:23:42;;;;;;;14.02;10.07;;;;;;;;;;5066210;28;20432;-84
2023/05/22 08:26:15;;;;;;;9.38;8.55;;;;;;;;;;5047774;28;20197;-88
2023/05/22 08:28:43;;;;;;;10.20;9.20;;;;;;;;;;5064289;28;20204;-80
2023/05/22 08:31:11;;;;;;;11.82;9.43;;;;;;;;;;5068083;28;20850;-81
2023/05/22 08:33:41;;;;;;;10.95;9.73;;;;;;;;;;5062883;28;21072;-86
2023/05/22 08:36:08;;;;;;;9.73;8.63;;;;;;;;;;5073708;28;20713;-82
2023/05/22 08:38:36;;;;;;;12.15;9.55;;;;;;;;;;5082056;28;20201;-85
2023/05/22 08:41:04;;;;;;;11.52;9.57;;;;;;;;;;5090283;28;20255;-82
2023/05/22 08:43:31;;;;;;;10.75;9.65;;;;;;;;;;5057957;28;20228;-82
2023/05/22 08:46:07;;;;;;;10.43;9.25;;;;;;;;;;5060910;28;20300;-78
2023/05/22 08:48:35;;;;;;;10.02;9.13;;;;;;;;;;5069017;28;20201;-77
2023/05/22 08:51:03;;;;;;;10.82;9.68;;;;;;;;;;5074698;28;20200;-80
2023/05/22 08:53:33;;;;;;;11.38;9.15;;;;;;;;;;5060880;28;20255;-81
2023/05/22 08:56:02;;;;;;;12.25;9.48;;;;;;;;;;5070285;28;20299;-82
2023/05/22 08:58:30;;;;;;;10.50;9.40;;;;;;;;;;5070650;28;20208;-87
2023/05/22 09:00:58;;;;;;;10.55;9.52;;;;;;;;;;5056694;28;20235;-80
2023/05/22 09:03:31;;;;;;;11.77;9.63;;;;;;;;;;5085401;28;20232;-78
2023/05/22 09:06:00;;;;;;;9.95;9.05;;;;;;;;;;5076910;28;20208;-81
2023/05/22 09:08:27;;;;;;;11.50;9.60;;;;;;;;;;5069712;28;20205;-79
2023/05/22 09:10:55;;;;;;;10.55;9.55;;;;;;;;;;5073430;28;20209;-82
2023/05/22 09:13:31;;;;;;;10.77;9.27;;;;;;;;;;5048584;28;20221;-83
2023/05/22 09:15:59;;;;;;;11.27;10.00;;;;;;;;;;5069718;28;20200;-80
2023/05/22 09:18:28;;;;;;;12.10;10.77;;;;;;;;;;5054151;28;20211;-83
2023/05/22 09:20:58;;;;;;;12.23;10.20;;;;;;;;;;5058250;28;20207;-82
2023/05/22 09:23:27;;;;;;;11.25;10.15;;;;;;;;;;5056702;28;20225;-85
2023/05/22 09:25:55;;;;;;;11.23;9.98;;;;;;;;;;5069033;28;20866;-81
2023/05/22 09:28:23;;;;;;;10.20;9.20;;;;;;;;;;5070593;28;20458;-80
2023/05/22 09:30:51;;;;;;;10.60;9.50;;;;;;;;;;5063109;28;20205;-81
2023/05/22 09:33:18;;;;;;;9.80;8.80;;;;;;;;;;5070177;28;20248;-80
2023/05/22 09:35:47;;;;;;;10.30;9.38;;;;;;;;;;5066120;28;20817;-79
2023/05/22 09:38:14;;;;;;;11.90;9.10;;;;;;;;;;5068110;28;20273;-83
2023/05/22 09:40:42;;;;;;;10.90;9.00;;;;;;;;;;5071794;28;20251;-84
2023/05/22 09:43:09;;;;;;;9.65;8.70;;;;;;;;;;5070044;28;20228;-81
2023/05/22 09:45:38;;;;;;;9.73;8.82;;;;;;;;;;5068593;28;20515;-86
2023/05/22 09:48:06;;;;;;;9.90;8.85;;;;;;;;;;5071678;28;20201;-79
2023/05/22 09:50:33;;;;;;;9.77;8.68;;;;;;;;;;5060605;28;20212;-83
2023/05/22 09:53:04;;;;;;;10.07;9.18;;;;;;;;;;5047582;28;20323;-83
2023/05/22 09:55:32;;;;;;;9.13;8.20;;;;;;;;;;5049233;28;20493;-81
2023/05/22 09:58:02;;;;;;;10.07;9.13;;;;;;;;;;5057189;28;20224;-82
2023/05/22 10:00:30;;;;;;;9.73;8.55;;;;;;;;;;5075611;28;20278;-83
2023/05/22 10:03:02;;;;;;;12.88;9.00;;;;;;;;;;5052855;28;20240;-81
2023/05/22 10:05:31;;;;;;;10.40;9.40;;;;;;;;;;5071086;28;20243;-81
2023/05/22 10:08:10;;;;;;;13.55;10.18;;;;;;;;;;5081045;28;20257;-80
2023/05/22 10:10:38;;;;;;;10.07;9.07;;;;;;;;;;5068512;28;20197;-81
2023/05/22 10:13:06;;;;;;;11.38;10.05;;;;;;;;;;5064677;28;20715;-81
2023/05/22 10:15:37;;;;;;;12.13;10.73;;;;;;;;;;5084009;28;20260;-82
2023/05/22 10:18:05;;;;;;;11.43;8.70;;;;;;;;;;5075310;28;20211;-81
2023/05/22 10:20:32;;;;;;;10.07;8.80;;;;;;;;;;5071543;28;20225;-83
2023/05/22 10:23:02;;;;;;;10.73;9.63;;;;;;;;;;5053024;28;20700;-86
2023/05/22 10:25:29;;;;;;;14.98;11.50;;;;;;;;;;5077139;28;20314;-83
2023/05/22 10:27:57;;;;;;;9.15;8.35;;;;;;;;;;5067118;28;20204;-77
2023/05/22 10:30:39;;;;;;;9.10;8.18;;;;;;;;;;5067709;28;20198;-80
2023/05/22 10:33:11;;;;;;;8.80;8.00;;;;;;;;;;5062557;28;20220;-81
2023/05/22 10:35:43;;;;;;;8.73;7.87;;;;;;;;;;5080749;28;25061;-79
2023/05/22 10:38:26;;;;;;;8.98;8.10;;;;;;;;;;5062575;28;20205;-79
2023/05/22 10:40:54;;;;;;;10.50;9.50;;;;;;;;;;5076882;28;20211;-81
2023/05/22 10:43:22;;;;;;;10.10;8.05;;;;;;;;;;5076790;28;21031;-86
2023/05/22 10:46:00;;;;;;;9.15;8.25;;;;;;;;;;5061568;28;20247;-82
2023/05/22 10:48:27;;;;;;;8.77;7.88;;;;;;;;;;5079063;28;20204;-82
2023/05/22 10:50:55;;;;;;;9.25;8.35;;;;;;;;;;5074376;28;20652;-80
2023/05/22 10:53:28;;;;;;;13.00;11.13;;;;;;;;;;5063071;28;20795;-78
2023/05/22 10:55:55;;;;;;;9.07;8.25;;;;;;;;;;5049642;28;20339;-77
2023/05/22 10:58:26;;;;;;;9.00;8.23;;;;;;;;;;5063244;28;20213;-78
2023/05/22 11:01:13;;;;;;;10.30;7.68;;;;;;;;;;5072652;28;20213;-81
2023/05/22 11:03:57;;;;;;;8.77;7.95;;;;;;;;;;5066775;28;20785;-84
2023/05/22 11:06:36;;;;;;;8.73;7.93;;;;;;;;;;5071782;28;20225;-79
2023/05/22 11:09:22;;;;;;;10.60;9.13;;;;;;;;;;5082676;28;20212;-80
2023/05/22 11:12:09;;;;;;;11.63;9.30;;;;;;;;;;5080265;28;20201;-80
2023/05/22 11:14:37;;;;;;;9.55;8.52;;;;;;;;;;5060836;28;20628;-80
2023/05/22 11:17:07;;;;;;;10.18;9.13;;;;;;;;;;5076193;28;20681;-78
2023/05/22 11:19:35;;;;;;;10.13;9.13;;;;;;;;;;5080445;28;20658;-81
2023/05/22 11:22:03;;;;;;;9.65;8.63;;;;;;;;;;5080092;28;20209;-85
2023/05/22 11:24:33;;;;;;;9.63;8.65;;;;;;;;;;5083109;28;20213;-82
2023/05/22 11:27:02;;;;;;;10.90;8.38;;;;;;;;;;5081604;28;20283;-82
2023/05/22 11:29:30;;;;;;;8.93;8.23;;;;;;;;;;5079307;28;20220;-80
2023/05/22 11:35:07;;;;;;;8.65;7.85;;;;;;;;;;5077307;28;20296;-82
2023/05/22 11:37:38;;;;;;;9.90;8.32;;;;;;;;;;5066376;28;20197;-82
2023/05/22 11:40:06;;;;;;;8.48;7.68;;;;;;;;;;5076276;28;20257;-77
2023/05/22 11:42:34;;;;;;;8.43;7.55;;;;;;;;;;5085802;28;20240;-80
2023/05/22 11:45:02;;;;;;;8.40;7.20;;;;;;;;;;5075712;28;20293;-78
2023/05/22 11:47:30;;;;;;;8.55;7.75;;;;;;;;;;5069483;28;20705;-81
2023/05/22 11:49:58;;;;;;;8.35;7.60;;;;;;;;;;5076690;28;20198;-79
2023/05/22 11:52:29;;;;;;;8.75;7.90;;;;;;;;;;5079333;28;20417;-84
2023/05/22 11:54:57;;;;;;;9.40;8.48;;;;;;;;;;5061692;28;20208;-81
2023/05/22 11:57:24;;;;;;;9.27;8.38;;;;;;;;;;5057793;28;20208;-82
2023/05/22 11:59:52;;;;;;;9.00;8.20;;;;;;;;;;5079430;28;20231;-80
2023/05/22 12:02:19;;;;;;;9.05;8.25;;;;;;;;;;5073300;28;20721;-85
2023/05/22 12:04:46;;;;;;;8.43;7.72;;;;;;;;;;5076521;28;20991;-82
2023/05/22 12:07:14;;;;;;;9.23;8.32;;;;;;;;;;5074621;28;20243;-81
2023/05/22 12:09:42;;;;;;;8.55;7.65;;;;;;;;;;5073528;28;20224;-81
2023/05/22 12:12:27;;;;;;;8.98;7.95;;;;;;;;;;5077852;28;20201;-88
2023/05/22 12:14:54;;;;;;;9.82;8.82;;;;;;;;;;5072903;28;20333;-87
2023/05/22 12:17:22;;;;;;;10.35;8.90;;;;;;;;;;5080703;28;20694;-84
2023/05/22 12:19:49;;;;;;;9.18;8.27;;;;;;;;;;5073311;28;20204;-84
2023/05/22 12:22:16;;;;;;;9.15;8.30;;;;;;;;;;5079592;28;20225;-83
2023/05/22 12:24:45;;;;;;;9.25;8.30;;;;;;;;;;5073462;28;20267;-83
2023/05/22 12:27:13;;;;;;;9.43;8.48;;;;;;;;;;5058509;28;20851;-77
2023/05/22 12:29:41;;;;;;;9.68;8.75;;;;;;;;;;5079157;28;20205;-80
2023/05/22 12:32:09;;;;;;;9.32;8.43;;;;;;;;;;5077359;28;20205;-82
2023/05/22 12:34:48;;;;;;;9.35;8.48;;;;;;;;;;5058715;28;20196;-84
2023/05/22 12:37:19;;;;;;;9.10;8.30;;;;;;;;;;5057657;28;20781;-83
2023/05/22 12:39:55;;;;;;;9.50;8.57;;;;;;;;;;5082321;28;20656;-83
2023/05/22 12:42:23;;;;;;;7.68;6.90;;;;;;;;;;5079380;28;20480;-79
2023/05/22 12:44:52;;;;;;;6.90;6.30;;;;;;;;;;5062743;28;20664;-78
2023/05/22 12:47:20;;;;;;;7.95;7.28;;;;;;;;;;5079635;28;20201;-81
2023/05/22 12:49:47;;;;;;;7.97;7.30;;;;;;;;;;5063431;28;20247;-80
2023/05/22 12:52:14;;;;;;;8.05;7.35;;;;;;;;;;5078601;28;20205;-80
2023/05/22 12:54:42;;;;;;;7.68;6.95;;;;;;;;;;5079004;28;20197;-81
2023/05/22 12:57:09;;;;;;;8.07;7.28;;;;;;;;;;5080193;28;20302;-81
2023/05/22 12:59:37;;;;;;;7.97;7.18;;;;;;;;;;5079838;28;20261;-83
2023/05/22 13:02:05;;;;;;;8.52;7.72;;;;;;;;;;5078357;28;20246;-79
2023/05/22 13:04:32;;;;;;;7.82;7.20;;;;;;;;;;5059820;28;20197;-79
2023/05/22 13:06:59;;;;;;;7.53;6.93;;;;;;;;;;5078604;28;20225;-83
2023/05/22 13:09:27;;;;;;;7.93;7.22;;;;;;;;;;5077695;28;20209;-84
2023/05/22 13:11:55;;;;;;;6.57;5.97;;;;;;;;;;5075724;28;20219;-80
2023/05/22 13:14:22;;;;;;;7.50;6.75;;;;;;;;;;5062532;28;20211;-86
2023/05/22 13:16:49;;;;;;;8.25;6.85;;;;;;;;;;5056553;28;20365;-80
2023/05/22 13:19:17;;;;;;;8.25;7.25;;;;;;;;;;5062206;28;20205;-84
2023/05/22 13:21:44;;;;;;;7.70;6.68;;;;;;;;;;5080917;28;20248;-82
2023/05/22 13:24:11;;;;;;;7.60;6.90;;;;;;;;;;5083452;28;20287;-85
2023/05/22 13:26:38;;;;;;;7.32;6.60;;;;;;;;;;5059961;28;20217;-80
2023/05/22 13:29:06;;;;;;;9.20;7.05;;;;;;;;;;5076034;28;21126;-81
2023/05/22 13:31:36;;;;;;;9.90;7.20;;;;;;;;;;5076395;28;20205;-83
2023/05/22 13:34:03;;;;;;;8.25;7.53;;;;;;;;;;5071938;28;20645;-79
2023/05/22 13:36:31;;;;;;;9.52;7.75;;;;;;;;;;5076674;28;20208;-84
2023/05/22 13:38:59;;;;;;;8.55;7.72;;;;;;;;;;5074965;28;21237;-84
2023/05/22 13:41:26;;;;;;;7.45;6.85;;;;;;;;;;5051669;28;20201;-82
2023/05/22 13:43:53;;;;;;;7.60;6.90;;;;;;;;;;5061626;28;20275;-84
2023/05/22 13:46:21;;;;;;;7.10;6.47;;;;;;;;;;5058786;28;20600;-84
2023/05/22 13:48:48;;;;;;;7.90;7.20;;;;;;;;;;5082315;28;20206;-84
2023/05/22 13:51:16;;;;;;;8.88;6.72;;;;;;;;;;5083850;28;20752;-80
2023/05/22 13:53:43;;;;;;;8.63;7.00;;;;;;;;;;5081037;28;20587;-80
2023/05/22 13:56:10;;;;;;;7.15;6.53;;;;;;;;;;5082436;28;20200;-79
2023/05/22 13:58:37;;;;;;;6.47;5.88;;;;;;;;;;5075042;28;20205;-82
2023/05/22 14:01:05;;;;;;;7.28;6.68;;;;;;;;;;5064817;28;20210;-81
2023/05/22 14:03:32;;;;;;;7.57;6.60;;;;;;;;;;5078663;28;22835;-77
2023/05/22 14:06:00;;;;;;;6.53;5.93;;;;;;;;;;5072491;28;20222;-83
2023/05/22 14:08:27;;;;;;;7.72;6.63;;;;;;;;;;5085387;28;20202;-84
2023/05/22 14:10:54;;;;;;;6.53;5.93;;;;;;;;;;5054338;28;20209;-79
2023/05/22 14:13:22;;;;;;;9.25;6.20;;;;;;;;;;5083071;28;20567;-82
2023/05/22 14:15:49;;;;;;;6.82;5.88;;;;;;;;;;5058746;28;20208;-80
2023/05/22 14:18:16;;;;;;;6.28;5.55;;;;;;;;;;5087461;28;20786;-83
2023/05/22 14:20:45;;;;;;;5.95;5.45;;;;;;;;;;5076489;28;20235;-80
2023/05/22 14:23:12;;;;;;;7.40;5.60;;;;;;;;;;5053713;28;20252;-79
2023/05/22 14:25:43;;;;;;;7.47;6.20;;;;;;;;;;5076067;28;20228;-83
2023/05/22 14:28:11;;;;;;;6.68;6.03;;;;;;;;;;5062233;28;20197;-81
2023/05/22 14:30:39;;;;;;;7.85;7.05;;;;;;;;;;5076683;28;20215;-82
2023/05/22 14:33:06;;;;;;;5.60;5.10;;;;;;;;;;5074121;28;20224;-86
2023/05/22 14:35:34;;;;;;;5.70;5.20;;;;;;;;;;5071926;28;20809;-81
2023/05/22 14:38:01;;;;;;;6.13;5.22;;;;;;;;;;5063934;28;20206;-78
2023/05/22 14:40:29;;;;;;;6.38;5.78;;;;;;;;;;5078442;28;20209;-84